createdAt,value
2022-08-07T00:01:43.938Z,2.75
2022-08-07T00:04:09.484Z,3.17
2022-08-07T00:06:51.276Z,3.50
2022-08-07T00:09:22.789Z,3.15
2022-08-07T00:11:55.373Z,3.03
2022-08-07T00:14:30.024Z,3.53
2022-08-07T00:17:01.795Z,3.33
2022-08-07T00:19:34.111Z,3.38
2022-08-07T00:25:07.060Z,3.20
2022-08-07T00:27:35.773Z,3.60
2022-08-07T00:30:26.820Z,3.55
2022-08-07T00:32:56.174Z,3.33
2022-08-07T00:35:24.648Z,3.50
2022-08-07T00:37:51.866Z,3.90
2022-08-07T00:40:36.124Z,3.45
2022-08-07T00:43:03.948Z,3.95
2022-08-07T00:45:36.741Z,3.50
2022-08-07T00:48:07.917Z,3.50
2022-08-07T00:50:51.341Z,3.63
2022-08-07T00:53:20.544Z,3.53
2022-08-07T00:56:02.346Z,3.20
2022-08-07T00:58:30.329Z,3.22
2022-08-07T01:00:57.126Z,3.38
2022-08-07T01:03:54.873Z,3.60
2022-08-07T01:06:10.602Z,3.50
2022-08-07T01:08:51.375Z,3.63
2022-08-07T01:12:27.578Z,3.75
2022-08-07T01:14:08.007Z,3.55
2022-08-07T01:16:36.745Z,3.47
2022-08-07T01:19:14.816Z,4.50
2022-08-07T01:21:47.250Z,3.42
2022-08-07T01:24:14.323Z,3.28
2022-08-07T01:26:51.635Z,3.60
2022-08-07T01:29:22.754Z,3.17
2022-08-07T01:31:51.819Z,3.30
2022-08-07T01:34:19.647Z,3.42
2022-08-07T01:36:57.877Z,3.58
2022-08-07T01:39:40.482Z,3.10
2022-08-07T01:42:39.772Z,3.38
2022-08-07T01:45:17.874Z,3.33
2022-08-07T01:48:27.407Z,3.83
2022-08-07T01:50:37.332Z,4.15
2022-08-07T01:53:09.143Z,3.88
2022-08-07T01:55:44.167Z,3.28
2022-08-07T01:58:27.283Z,3.67
2022-08-07T02:01:10.036Z,3.65
2022-08-07T02:03:56.394Z,3.42
2022-08-07T02:06:31.241Z,3.40
2022-08-07T02:09:05.983Z,3.92
2022-08-07T02:12:03.528Z,3.65
2022-08-07T02:14:40.331Z,3.08
2022-08-07T02:17:16.634Z,3.38
2022-08-07T02:20:04.797Z,3.03
2022-08-07T02:22:38.441Z,2.97
2022-08-07T02:25:13.813Z,2.92
2022-08-07T02:27:54.712Z,3.67
2022-08-07T02:30:22.693Z,3.85
2022-08-07T02:33:00.622Z,3.65
2022-08-07T02:36:30.865Z,3.10
2022-08-07T02:38:35.606Z,3.20
2022-08-07T02:41:04.713Z,3.42
2022-08-07T02:43:37.937Z,3.90
2022-08-07T02:46:07.439Z,3.70
2022-08-07T02:48:35.759Z,3.88
2022-08-07T02:51:29.282Z,3.55
2022-08-07T02:53:58.228Z,3.10
2022-08-07T02:56:28.697Z,3.13
2022-08-07T02:59:02.098Z,3.35
2022-08-07T03:01:35.093Z,3.55
2022-08-07T03:04:07.748Z,3.13
2022-08-07T03:06:46.168Z,3.05
2022-08-07T03:09:44.659Z,2.80
2022-08-07T03:12:06.671Z,2.65
2022-08-07T03:14:37.750Z,2.78
2022-08-07T03:17:08.801Z,2.88
2022-08-07T03:19:37.367Z,3.08
2022-08-07T03:22:07.867Z,4.18
2022-08-07T03:24:46.097Z,2.70
2022-08-07T03:27:14.733Z,2.88
2022-08-07T03:29:59.975Z,3.05
2022-08-07T03:32:33.489Z,2.60
2022-08-07T03:35:17.726Z,3.33
2022-08-07T03:37:53.505Z,3.10
2022-08-07T03:40:27.464Z,3.00
2022-08-07T03:43:04.491Z,3.05
2022-08-07T03:45:43.504Z,3.65
2022-08-07T03:48:15.759Z,2.53
2022-08-07T03:50:55.652Z,2.58
2022-08-07T03:53:49.919Z,2.78
2022-08-07T03:56:14.316Z,2.38
2022-08-07T03:59:08.326Z,2.95
2022-08-07T04:01:30.188Z,2.55
2022-08-07T04:03:59.196Z,2.30
2022-08-07T04:06:37.423Z,2.40
2022-08-07T04:09:15.991Z,2.45
2022-08-07T04:12:23.581Z,2.28
2022-08-07T04:14:39.027Z,2.30
2022-08-07T04:17:19.758Z,1.90
2022-08-07T04:19:52.667Z,2.08
2022-08-07T04:22:27.594Z,2.42
2022-08-07T04:25:01.352Z,3.25
2022-08-07T04:27:29.056Z,2.60
2022-08-07T04:30:10.249Z,2.22
2022-08-07T04:32:58.140Z,2.40
2022-08-07T04:35:35.310Z,2.30
2022-08-07T04:38:14.189Z,2.03
2022-08-07T04:40:51.607Z,2.00
2022-08-07T04:43:53.531Z,1.85
2022-08-07T04:46:20.078Z,2.17
2022-08-07T04:49:24.372Z,1.92
2022-08-07T04:52:08.456Z,2.10
2022-08-07T04:54:59.863Z,1.80
2022-08-07T04:58:16.317Z,2.00
2022-08-07T05:00:40.447Z,1.80
2022-08-07T05:03:38.912Z,2.40
2022-08-07T05:07:00.211Z,2.10
2022-08-07T05:09:57.903Z,1.80
2022-08-07T05:12:51.370Z,1.85
2022-08-07T05:15:25.703Z,2.08
2022-08-07T05:18:00.429Z,2.20
2022-08-07T05:20:54.898Z,2.70
2022-08-07T05:23:29.972Z,2.00
2022-08-07T05:26:13.701Z,2.53
2022-08-07T05:28:50.025Z,2.22
2022-08-07T05:31:22.162Z,2.13
2022-08-07T05:34:05.147Z,2.58
2022-08-07T05:36:42.473Z,2.42
2022-08-07T05:40:07.345Z,1.90
2022-08-07T05:42:12.528Z,2.00
2022-08-07T05:44:46.437Z,2.20
2022-08-07T05:47:38.085Z,1.92
2022-08-07T05:50:10.014Z,1.83
2022-08-07T05:52:36.916Z,1.90
2022-08-07T05:55:10.769Z,1.73
2022-08-07T05:57:42.680Z,1.98
2022-08-07T06:00:16.026Z,1.75
2022-08-07T06:02:53.718Z,1.77
2022-08-07T06:05:28.184Z,1.85
2022-08-07T06:08:30.316Z,2.00
2022-08-07T06:10:51.349Z,1.77
2022-08-07T06:14:10.707Z,2.38
2022-08-07T06:16:10.044Z,2.45
2022-08-07T06:18:39.567Z,2.33
2022-08-07T06:22:16.971Z,2.28
2022-08-07T06:24:52.288Z,2.58
2022-08-07T06:26:45.152Z,3.00
2022-08-07T06:29:14.184Z,4.00
2022-08-07T06:31:49.883Z,3.08
2022-08-07T06:34:20.767Z,2.95
2022-08-07T06:36:52.137Z,3.17
2022-08-07T06:40:15.663Z,3.97
2022-08-07T06:42:35.167Z,3.63
2022-08-07T06:45:18.302Z,3.67
2022-08-07T06:47:58.854Z,4.45
2022-08-07T06:50:33.487Z,3.63
2022-08-07T06:53:04.101Z,3.47
2022-08-07T06:55:54.021Z,3.40
2022-08-07T06:58:27.631Z,3.38
2022-08-07T07:01:06.973Z,3.47
2022-08-07T07:03:49.125Z,3.55
2022-08-07T07:06:26.109Z,3.20
2022-08-07T07:08:54.390Z,3.15
2022-08-07T07:12:09.131Z,2.70
2022-08-07T07:14:10.048Z,2.97
2022-08-07T07:16:49.669Z,3.50
2022-08-07T07:19:57.751Z,2.65
2022-08-07T07:22:32.196Z,2.92
2022-08-07T07:25:02.752Z,2.80
2022-08-07T07:27:35.675Z,3.00
2022-08-07T07:30:37.979Z,2.78
2022-08-07T07:33:07.771Z,2.47
2022-08-07T07:35:51.831Z,5.25
2022-08-07T07:38:26.003Z,6.13
2022-08-07T07:41:01.868Z,3.47
2022-08-07T07:44:13.714Z,2.92
2022-08-07T07:46:37.413Z,2.28
2022-08-07T07:49:09.179Z,2.72
2022-08-07T07:51:58.164Z,2.58
2022-08-07T07:54:28.042Z,2.47
2022-08-07T07:56:57.494Z,2.30
2022-08-07T07:59:51.487Z,2.70
2022-08-07T08:02:34.093Z,2.20
2022-08-07T08:05:14.171Z,2.80
2022-08-07T08:07:59.649Z,2.38
2022-08-07T08:10:37.907Z,2.42
2022-08-07T08:13:10.664Z,2.80
2022-08-07T08:15:58.335Z,2.58
2022-08-07T08:18:28.090Z,2.88
2022-08-07T08:20:58.565Z,2.25
2022-08-07T08:23:46.647Z,2.10
2022-08-07T08:26:34.431Z,3.17
2022-08-07T08:29:04.227Z,2.08
2022-08-07T08:31:58.718Z,3.05
2022-08-07T08:34:33.604Z,2.75
2022-08-07T08:37:02.832Z,2.75
2022-08-07T08:39:39.523Z,2.55
2022-08-07T08:42:34.167Z,2.47
2022-08-07T08:45:13.201Z,2.40
2022-08-07T08:47:56.296Z,2.67
2022-08-07T08:50:39.790Z,2.00
2022-08-07T08:53:51.810Z,2.17
2022-08-07T08:56:27.563Z,2.05
2022-08-07T08:59:20.566Z,2.30
2022-08-07T09:02:05.217Z,2.10
2022-08-07T09:04:47.194Z,2.08
2022-08-07T09:07:16.741Z,2.13
2022-08-07T09:10:07.953Z,2.10
2022-08-07T09:12:53.021Z,1.95
2022-08-07T09:16:24.754Z,2.22
2022-08-07T09:18:41.452Z,1.83
2022-08-07T09:21:57.769Z,2.50
2022-08-07T09:24:59.098Z,1.77
2022-08-07T09:28:00.537Z,1.70
2022-08-07T09:30:55.249Z,1.73
2022-08-07T09:33:57.656Z,1.80
2022-08-07T09:36:28.571Z,1.63
2022-08-07T09:39:54.598Z,2.08
2022-08-07T09:42:39.048Z,1.67
2022-08-07T09:47:51.360Z,2.67
2022-08-07T09:48:19.021Z,1.60
2022-08-07T09:50:55.981Z,1.42
2022-08-07T09:53:24.510Z,1.55
2022-08-07T09:56:37.206Z,2.50
2022-08-07T09:59:26.890Z,2.15
2022-08-07T10:02:29.556Z,2.08
2022-08-07T10:06:01.305Z,1.50
2022-08-07T10:08:40.565Z,1.40
2022-08-07T10:12:01.167Z,1.67
2022-08-07T10:14:37.059Z,1.63
2022-08-07T10:18:01.758Z,1.75
2022-08-07T10:20:57.896Z,1.73
2022-08-07T10:24:06.303Z,1.60
2022-08-07T10:26:53.787Z,1.48
2022-08-07T10:30:06.973Z,2.67
2022-08-07T10:33:00.048Z,1.73
2022-08-07T10:35:55.425Z,1.60
2022-08-07T10:38:42.154Z,1.52
2022-08-07T10:41:52.413Z,1.63
2022-08-07T10:44:38.398Z,1.60
2022-08-07T10:47:16.049Z,1.50
2022-08-07T10:49:55.687Z,1.42
2022-08-07T10:52:33.893Z,1.40
2022-08-07T10:55:27.041Z,1.80
2022-08-07T10:58:32.973Z,1.60
2022-08-07T11:01:24.981Z,1.58
2022-08-07T11:04:23.174Z,1.88
2022-08-07T11:06:58.233Z,1.40
2022-08-07T11:10:09.676Z,1.60
2022-08-07T11:12:49.239Z,1.65
2022-08-07T11:15:34.163Z,1.70
2022-08-07T11:18:18.281Z,1.50
2022-08-07T11:21:03.135Z,1.75
2022-08-07T11:23:45.598Z,1.20
2022-08-07T11:26:31.334Z,1.38
2022-08-07T11:29:13.202Z,2.33
2022-08-07T11:32:01.854Z,2.28
2022-08-07T11:34:50.625Z,1.30
2022-08-07T11:37:38.624Z,1.65
2022-08-07T11:40:53.913Z,1.23
2022-08-07T11:43:41.540Z,1.40
2022-08-07T11:46:30.300Z,1.08
2022-08-07T11:49:51.068Z,1.30
2022-08-07T11:52:19.745Z,1.95
2022-08-07T11:56:25.317Z,3.88
2022-08-07T11:58:57.456Z,1.40
2022-08-07T12:01:59.042Z,2.38
2022-08-07T12:04:49.277Z,1.17
2022-08-07T12:07:38.992Z,1.15
2022-08-07T12:10:19.171Z,1.60
2022-08-07T12:13:03.370Z,1.60
2022-08-07T12:16:05.779Z,1.35
2022-08-07T12:18:45.131Z,2.13
2022-08-07T12:21:21.183Z,1.50
2022-08-07T12:24:38.181Z,1.17
2022-08-07T12:27:18.507Z,1.20
2022-08-07T12:30:02.947Z,1.70
2022-08-07T12:32:49.097Z,1.67
2022-08-07T12:35:17.375Z,1.73
2022-08-07T12:38:10.732Z,1.10
2022-08-07T12:40:48.528Z,1.85
2022-08-07T12:44:02.110Z,1.10
2022-08-07T12:46:32.772Z,1.17
2022-08-07T12:49:48.665Z,0.95
2022-08-07T12:52:28.965Z,1.13
2022-08-07T12:55:17.684Z,3.17
2022-08-07T12:58:01.085Z,1.73
2022-08-07T13:00:52.095Z,1.33
2022-08-07T13:04:02.939Z,1.35
2022-08-07T13:07:05.273Z,1.23
2022-08-07T13:10:28.390Z,1.15
2022-08-07T13:12:56.155Z,1.17
2022-08-07T13:15:36.099Z,1.50
2022-08-07T13:18:34.311Z,1.10
2022-08-07T13:21:37.842Z,1.92
2022-08-07T13:24:29.307Z,1.10
2022-08-07T13:27:20.509Z,1.33
2022-08-07T13:29:56.133Z,1.15
2022-08-07T13:32:41.402Z,2.38
2022-08-07T13:35:21.275Z,1.20
2022-08-07T13:38:08.832Z,2.72
2022-08-07T13:41:13.493Z,1.02
2022-08-07T13:43:52.398Z,0.80
2022-08-07T13:46:33.356Z,2.28
2022-08-07T13:49:03.707Z,0.85
2022-08-07T13:52:04.913Z,0.73
2022-08-07T13:54:30.389Z,2.63
2022-08-07T13:57:02.683Z,1.08
2022-08-07T13:59:34.249Z,0.98
2022-08-07T14:02:10.683Z,0.93
2022-08-07T14:04:54.361Z,1.63
2022-08-07T14:07:27.434Z,0.80
2022-08-07T14:10:02.135Z,1.23
2022-08-07T14:12:57.440Z,0.80
2022-08-07T14:15:31.968Z,0.80
2022-08-07T14:18:29.893Z,1.40
2022-08-07T14:21:20.632Z,0.80
2022-08-07T14:24:08.939Z,1.52
2022-08-07T14:26:51.213Z,1.02
2022-08-07T14:30:09.346Z,0.90
2022-08-07T14:32:12.687Z,0.90
2022-08-07T14:37:36.376Z,1.10
2022-08-07T14:40:16.211Z,1.17
2022-08-07T14:43:58.940Z,0.90
2022-08-07T14:46:11.375Z,1.30
2022-08-07T14:52:04.500Z,0.90
2022-08-07T14:57:18.846Z,1.00
2022-08-07T15:00:03.253Z,0.90
2022-08-07T15:02:34.924Z,0.77
2022-08-07T15:05:03.041Z,0.85
2022-08-07T15:07:51.020Z,0.90
2022-08-07T15:10:26.721Z,1.08
2022-08-07T15:15:42.067Z,0.95
2022-08-07T15:18:28.606Z,0.90
2022-08-07T15:21:08.283Z,0.90
2022-08-07T15:27:10.025Z,1.00
2022-08-07T15:30:08.644Z,1.13
2022-08-07T15:36:01.927Z,1.00
2022-08-07T15:38:17.594Z,1.10
2022-08-07T15:41:23.865Z,0.82
2022-08-07T15:44:01.030Z,0.98
2022-08-07T15:49:18.103Z,1.00
2022-08-07T15:54:30.864Z,1.10
2022-08-07T15:57:03.376Z,0.88
2022-08-07T15:59:39.824Z,1.13
2022-08-07T16:02:23.810Z,0.90
2022-08-07T16:04:57.699Z,0.95
2022-08-07T16:08:31.234Z,1.02
2022-08-07T16:10:22.646Z,0.80
2022-08-07T16:13:57.606Z,1.10
2022-08-07T16:16:49.924Z,0.90
2022-08-07T16:19:58.782Z,1.05
2022-08-07T16:22:38.240Z,0.80
2022-08-07T16:25:23.235Z,0.85
2022-08-07T16:30:08.246Z,1.00
2022-08-07T16:31:50.773Z,1.00
2022-08-07T16:34:51.513Z,1.10
2022-08-07T16:38:04.117Z,1.00
2022-08-07T16:40:30.733Z,0.90
2022-08-07T16:43:04.208Z,0.82
2022-08-07T16:46:21.414Z,0.88
2022-08-07T16:50:27.097Z,4.68
2022-08-07T16:52:41.797Z,1.10
2022-08-07T16:55:18.542Z,0.88
2022-08-07T16:58:02.232Z,0.90
2022-08-07T17:00:50.138Z,1.20
2022-08-07T17:03:58.014Z,0.80
2022-08-07T17:06:42.545Z,0.85
2022-08-07T17:10:08.115Z,1.00
2022-08-07T17:12:34.510Z,1.60
2022-08-07T17:15:07.445Z,1.50
2022-08-07T17:17:55.346Z,1.15
2022-08-07T17:20:35.556Z,1.13
2022-08-07T17:23:22.439Z,1.58
2022-08-07T17:26:23.486Z,1.20
2022-08-07T17:29:19.076Z,2.15
2022-08-07T17:32:49.375Z,1.20
2022-08-07T17:35:51.369Z,1.08
2022-08-07T17:38:33.394Z,1.00
2022-08-07T17:42:04.455Z,1.00
2022-08-07T17:44:41.708Z,1.27
2022-08-07T17:47:38.223Z,1.40
2022-08-07T17:50:16.408Z,1.10
2022-08-07T17:53:01.019Z,0.95
2022-08-07T17:55:55.795Z,0.90
2022-08-07T17:58:40.474Z,1.17
2022-08-07T18:01:24.939Z,0.97
2022-08-07T18:04:16.612Z,1.23
2022-08-07T18:07:20.503Z,1.00
2022-08-07T18:10:05.834Z,0.85
2022-08-07T18:13:09.666Z,1.10
2022-08-07T18:15:54.805Z,1.00
2022-08-07T18:18:46.499Z,0.80
2022-08-07T18:21:55.106Z,1.30
2022-08-07T18:24:35.554Z,2.15
2022-08-07T18:27:08.170Z,1.30
2022-08-07T18:30:05.750Z,1.33
2022-08-07T18:32:52.314Z,1.17
2022-08-07T18:35:21.832Z,1.02
2022-08-07T18:38:55.947Z,1.20
2022-08-07T18:41:17.145Z,1.20
2022-08-07T18:44:05.613Z,0.85
2022-08-07T18:46:51.194Z,1.35
2022-08-07T18:50:30.415Z,1.55
2022-08-07T18:52:51.907Z,0.95
2022-08-07T18:55:40.979Z,1.08
2022-08-07T18:58:25.168Z,0.95
2022-08-07T19:02:17.427Z,1.33
2022-08-07T19:04:14.482Z,1.50
2022-08-07T19:06:51.559Z,1.70
2022-08-07T19:09:57.454Z,1.05
2022-08-07T19:12:48.621Z,1.00
2022-08-07T19:16:02.172Z,1.17
2022-08-07T19:18:34.501Z,2.10
2022-08-07T19:21:48.092Z,2.45
2022-08-07T19:24:30.795Z,1.38
2022-08-07T19:28:29.518Z,1.27
2022-08-07T19:31:04.084Z,1.40
2022-08-07T19:32:59.800Z,1.52
2022-08-07T19:35:28.430Z,0.95
2022-08-07T19:38:03.282Z,1.90
2022-08-07T19:40:38.481Z,1.65
2022-08-07T19:43:21.629Z,1.42
2022-08-07T19:46:10.709Z,1.45
2022-08-07T19:48:43.609Z,1.20
2022-08-07T19:51:20.509Z,1.35
2022-08-07T19:54:35.746Z,2.13
2022-08-07T19:58:02.557Z,1.85
2022-08-07T19:59:41.712Z,1.55
2022-08-07T20:02:19.840Z,1.20
2022-08-07T20:04:57.892Z,1.20
2022-08-07T20:07:47.201Z,1.95
2022-08-07T20:10:36.282Z,1.42
2022-08-07T20:13:23.015Z,2.60
2022-08-07T20:15:57.560Z,1.15
2022-08-07T20:18:33.359Z,1.25
2022-08-07T20:21:14.559Z,1.33
2022-08-07T20:23:54.229Z,1.25
2022-08-07T20:26:29.916Z,1.50
2022-08-07T20:29:10.656Z,1.52
2022-08-07T20:31:46.401Z,1.73
2022-08-07T20:34:15.032Z,1.38
2022-08-07T20:36:43.977Z,1.50
2022-08-07T20:40:01.401Z,1.92
2022-08-07T20:42:14.985Z,1.42
2022-08-07T20:44:45.648Z,1.10
2022-08-07T20:47:25.002Z,1.77
2022-08-07T20:49:58.049Z,2.08
2022-08-07T20:52:50.717Z,1.30
2022-08-07T20:55:14.861Z,2.45
2022-08-07T20:58:02.878Z,2.20
2022-08-07T21:00:46.047Z,1.50
2022-08-07T21:03:23.272Z,2.03
2022-08-07T21:06:12.301Z,1.58
2022-08-07T21:09:14.126Z,1.77
2022-08-07T21:11:50.172Z,3.08
2022-08-07T21:14:33.906Z,1.67
2022-08-07T21:18:01.145Z,1.55
2022-08-07T21:20:00.906Z,1.75
2022-08-07T21:22:38.766Z,1.50
2022-08-07T21:25:20.123Z,1.50
2022-08-07T21:28:19.102Z,1.45
2022-08-07T21:31:15.060Z,2.05
2022-08-07T21:34:21.702Z,1.80
2022-08-07T21:37:00.673Z,1.67
2022-08-07T21:39:54.980Z,1.63
2022-08-07T21:42:42.376Z,2.50
2022-08-07T21:46:10.583Z,1.67
2022-08-07T21:48:42.352Z,1.80
2022-08-07T21:51:28.539Z,2.25
2022-08-07T21:54:27.540Z,3.33
2022-08-07T21:57:39.852Z,2.30
2022-08-07T22:00:22.281Z,1.73
2022-08-07T22:02:55.111Z,1.75
2022-08-07T22:05:44.296Z,1.73
2022-08-07T22:08:14.528Z,1.40
2022-08-07T22:10:49.592Z,1.90
2022-08-07T22:13:17.168Z,2.10
2022-08-07T22:16:40.234Z,2.22
2022-08-07T22:19:23.767Z,3.08
2022-08-07T22:22:10.894Z,1.50
2022-08-07T22:25:05.716Z,1.90
2022-08-07T22:28:24.633Z,1.98
2022-08-07T22:30:35.534Z,1.80
2022-08-07T22:33:13.065Z,2.08
2022-08-07T22:36:11.978Z,1.98
2022-08-07T22:39:01.098Z,2.22
2022-08-07T22:42:03.237Z,2.85
2022-08-07T22:44:29.316Z,2.25
2022-08-07T22:47:16.877Z,2.33
2022-08-07T22:50:20.654Z,2.10
2022-08-07T22:54:05.333Z,1.92
2022-08-07T22:56:13.009Z,1.67
2022-08-07T22:59:05.022Z,2.05
2022-08-07T23:02:01.202Z,2.63
2022-08-07T23:04:58.580Z,2.03
2022-08-07T23:07:58.261Z,2.35
2022-08-07T23:10:59.848Z,1.90
2022-08-07T23:13:48.871Z,2.15
2022-08-07T23:17:15.593Z,2.03
2022-08-07T23:20:13.530Z,2.38
2022-08-07T23:24:06.625Z,1.85
2022-08-07T23:26:25.045Z,1.98
2022-08-07T23:29:04.137Z,2.22
2022-08-07T23:34:23.333Z,2.22
2022-08-07T23:35:22.517Z,2.00
2022-08-07T23:38:19.235Z,2.25
2022-08-07T23:41:16.374Z,2.25
2022-08-07T23:44:29.743Z,2.30
2022-08-07T23:47:16.645Z,2.20
2022-08-07T23:49:56.348Z,1.95
2022-08-07T23:53:16.958Z,2.10
2022-08-07T23:55:52.070Z,2.40
2022-08-07T23:58:39.033Z,1.83
